Time;durP1;ratioP1;P1;durP2;ratioP2;P2;SDS_P1;SDS_P2;PMS_P1;PMS_P2;Temp;Humidity;BMP_temperature;BMP_pressure;BME280_temperature;BME280_humidity;BME280_pressure;Samples;Min_cycle;Max_cycle;Signal;HPM_P1;HPM_P2
2022/12/25 00:03:15;;;;;;;492.70;306.08;;;;;;;2.01;100.00;97996.06;10283657;28;20044;-56
2022/12/25 00:08:14;;;;;;;450.48;275.42;;;;;;;1.94;100.00;98004.34;10290221;28;20065;-57
2022/12/25 00:13:13;;;;;;;422.60;252.68;;;;;;;1.86;100.00;98003.19;10292762;28;20049;-57
2022/12/25 00:18:12;;;;;;;380.35;232.93;;;;;;;1.88;100.00;97998.97;10293275;28;20038;-56
2022/12/25 00:23:11;;;;;;;346.38;206.05;;;;;;;1.74;100.00;98014.72;10291239;28;20403;-57
2022/12/25 00:28:10;;;;;;;381.55;224.27;;;;;;;1.72;100.00;98012.91;10294239;28;20033;-56
2022/12/25 00:33:09;;;;;;;373.08;214.57;;;;;;;1.65;100.00;98013.50;10294045;28;20108;-56
2022/12/25 00:38:08;;;;;;;328.65;193.02;;;;;;;1.52;100.00;98025.78;10294533;28;20038;-56
2022/12/25 00:43:07;;;;;;;312.80;181.88;;;;;;;1.42;100.00;98018.59;10291272;28;20070;-56
2022/12/25 00:48:06;;;;;;;224.68;116.10;;;;;;;1.15;100.00;98032.81;10294227;28;20414;-56
2022/12/25 00:53:05;;;;;;;226.68;118.68;;;;;;;1.08;100.00;98017.25;10293047;28;20045;-56
2022/12/25 00:58:04;;;;;;;234.57;96.47;;;;;;;0.73;100.00;98022.56;10293474;28;20430;-56
2022/12/25 01:03:03;;;;;;;324.83;96.25;;;;;;;0.50;100.00;98037.81;10291153;28;20060;-57
2022/12/25 01:08:01;;;;;;;160.20;83.50;;;;;;;0.40;100.00;98026.31;10293548;28;20101;-57
2022/12/25 01:13:01;;;;;;;141.93;75.97;;;;;;;0.45;100.00;98029.97;10292244;28;20057;-56
2022/12/25 01:18:00;;;;;;;;;;;;;;;0.42;100.00;98023.84;10292309;28;20072;-56
2022/12/25 01:22:58;;;;;;;201.10;101.63;;;;;;;0.40;100.00;98040.75;10291266;28;20000;-57
2022/12/25 01:27:57;;;;;;;208.90;112.35;;;;;;;0.34;100.00;98028.63;10291449;28;20104;-56
2022/12/25 01:32:56;;;;;;;236.15;122.28;;;;;;;0.47;100.00;98030.91;10291465;28;20551;-56
2022/12/25 01:37:55;;;;;;;259.50;141.02;;;;;;;0.51;100.00;98019.13;10292299;28;20066;-57
2022/12/25 01:42:54;;;;;;;242.80;135.30;;;;;;;0.54;100.00;98023.50;10290808;28;20741;-57
2022/12/25 01:47:53;;;;;;;267.77;146.60;;;;;;;0.65;100.00;98019.72;10290732;28;20775;-57
2022/12/25 01:52:53;;;;;;;257.45;142.27;;;;;;;0.69;100.00;98019.91;10268342;28;20480;-57
2022/12/25 01:57:53;;;;;;;249.93;139.05;;;;;;;0.69;100.00;98024.16;10288253;28;20695;-57
2022/12/25 02:02:52;;;;;;;230.23;131.57;;;;;;;0.65;100.00;98033.34;10288705;28;20483;-57
2022/12/25 02:07:51;;;;;;;236.45;134.18;;;;;;;0.68;100.00;98014.72;10289407;28;20445;-57
2022/12/25 02:12:51;;;;;;;186.45;98.75;;;;;;;0.45;100.00;98029.97;10287060;28;20077;-57
2022/12/25 02:18:12;;;;;;;213.98;121.43;;;;;;;0.40;100.00;98021.19;10290267;28;20074;-57
2022/12/25 02:23:38;;;;;;;179.35;101.28;;;;;;;0.34;100.00;98035.41;10304084;28;20085;-57
2022/12/25 02:28:41;;;;;;;167.90;95.32;;;;;;;0.24;100.00;98023.91;10289010;28;20076;-57
2022/12/25 02:34:03;;;;;;;177.85;100.78;;;;;;;0.15;100.00;98032.06;10289132;28;20062;-57
2022/12/25 03:11:29;;;;;;;157.32;88.47;;;;;;;-0.03;100.00;98059.28;10286857;28;20092;-56
2022/12/25 03:27:04;;;;;;;167.27;93.70;;;;;;;-0.13;100.00;98074.97;10288686;28;20068;-56
2022/12/25 03:32:15;;;;;;;167.77;88.55;;;;;;;-0.16;100.00;98083.34;10286785;28;20042;-57
2022/12/25 04:36:10;;;;;;;243.77;135.50;;;;;;;-0.35;100.00;98111.34;10283563;28;20598;-57
2022/12/25 04:41:11;;;;;;;226.32;129.30;;;;;;;-0.32;100.00;98122.59;10285885;28;20073;-57
2022/12/25 04:46:10;;;;;;;264.38;135.82;;;;;;;-0.45;100.00;98138.94;10274627;28;20070;-56
2022/12/25 04:51:15;;;;;;;263.83;144.02;;;;;;;-0.57;100.00;98129.84;10257345;28;20034;-56
2022/12/25 04:56:16;;;;;;;219.15;117.78;;;;;;;-0.52;100.00;98169.19;10293482;28;20502;-57
2022/12/25 05:01:15;;;;;;;177.77;97.47;;;;;;;-0.70;100.00;98169.13;10291639;28;20061;-56
2022/12/25 05:06:14;;;;;;;152.20;80.15;;;;;;;-0.86;100.00;98178.59;10293270;28;20506;-57
2022/12/25 05:11:14;;;;;;;156.23;83.82;;;;;;;-0.87;100.00;98183.59;10292821;28;20093;-56
2022/12/25 05:16:16;;;;;;;164.35;90.20;;;;;;;-0.87;100.00;98186.13;10293094;28;20073;-56
2022/12/25 05:21:16;;;;;;;151.38;84.00;;;;;;;-0.90;100.00;98174.13;10290799;28;20099;-56
2022/12/25 05:26:18;;;;;;;146.43;81.95;;;;;;;-0.89;100.00;98186.03;10290818;28;20077;-57
2022/12/25 05:31:18;;;;;;;155.60;85.57;;;;;;;-0.86;100.00;98190.41;10291229;28;20061;-56
2022/12/25 05:36:17;;;;;;;160.00;91.25;;;;;;;-0.87;100.00;98199.75;10292702;28;20068;-57
2022/12/25 05:41:16;;;;;;;166.05;94.20;;;;;;;-0.87;100.00;98202.28;10289342;28;20069;-57
2022/12/25 05:46:16;;;;;;;175.90;101.38;;;;;;;-0.97;100.00;98211.94;10292161;28;20117;-56
2022/12/25 05:51:15;;;;;;;170.90;92.90;;;;;;;-0.87;100.00;98222.66;10291480;28;20073;-56
2022/12/25 05:56:14;;;;;;;174.43;95.80;;;;;;;-0.82;100.00;98218.69;10291796;28;20057;-56
2022/12/25 06:01:22;;;;;;;158.02;89.63;;;;;;;-0.76;100.00;98230.88;10289071;28;20048;-57
2022/12/25 06:06:21;;;;;;;182.20;101.40;;;;;;;-0.70;100.00;98240.50;10289029;28;20084;-57
2022/12/25 06:11:20;;;;;;;207.55;112.07;;;;;;;-0.68;100.00;98249.97;10288219;28;20041;-56
2022/12/25 06:16:19;;;;;;;176.18;99.68;;;;;;;-0.64;100.00;98253.56;10290661;28;20069;-57
2022/12/25 06:21:18;;;;;;;197.93;108.93;;;;;;;-0.68;100.00;98249.09;10289078;28;20128;-57
2022/12/25 06:26:18;;;;;;;266.17;145.80;;;;;;;-0.65;100.00;98255.25;10310798;28;20081;-57
2022/12/25 06:31:21;;;;;;;371.92;201.48;;;;;;;-0.74;100.00;98253.88;10286082;28;20050;-57
2022/12/25 06:36:23;;;;;;;441.45;250.45;;;;;;;-0.77;100.00;98269.88;10275596;28;20488;-57
2022/12/25 06:41:24;;;;;;;479.08;280.48;;;;;;;-0.73;100.00;98281.13;10272625;28;20169;-57
2022/12/25 06:46:26;;;;;;;471.58;279.38;;;;;;;-0.68;100.00;98292.41;10267945;28;20463;-56
2022/12/25 06:51:28;;;;;;;428.15;242.75;;;;;;;-0.59;100.00;98298.88;10286541;28;20065;-57
2022/12/25 06:56:27;;;;;;;469.95;277.00;;;;;;;-0.48;100.00;98309.63;10285345;28;20076;-56
2022/12/25 07:01:28;;;;;;;;;;;;;;;-0.41;100.00;98332.09;10286275;28;20061;-57
2022/12/25 07:06:27;;;;;;;422.58;220.93;;;;;;;-0.29;100.00;98324.19;10283761;28;19999;-56
2022/12/25 07:11:26;;;;;;;506.58;268.73;;;;;;;-0.12;100.00;98326.69;10283154;28;20092;-64
2022/12/25 07:16:25;;;;;;;402.75;223.15;;;;;;;0.03;100.00;98324.88;9939906;28;20046;-57
2022/12/25 07:21:24;;;;;;;416.20;242.88;;;;;;;0.09;100.00;98322.66;10220085;28;20400;-56
2022/12/25 07:26:23;;;;;;;451.75;263.90;;;;;;;0.22;100.00;98329.25;10285589;28;20034;-57
2022/12/25 07:31:22;;;;;;;453.92;274.30;;;;;;;0.37;100.00;98334.22;10273179;28;20033;-57
2022/12/25 07:36:21;;;;;;;347.55;207.02;;;;;;;0.45;100.00;98336.34;10245959;28;20064;-57
2022/12/25 07:41:20;;;;;;;340.40;208.75;;;;;;;0.69;100.00;98341.72;10244299;28;20027;-57
2022/12/25 07:46:21;;;;;;;407.60;240.32;;;;;;;0.87;100.00;98351.94;10243282;28;20502;-57
2022/12/25 07:51:20;;;;;;;401.20;246.82;;;;;;;1.05;100.00;98354.44;10278757;28;20057;-57
2022/12/25 07:56:19;;;;;;;314.85;191.80;;;;;;;1.27;100.00;98370.75;10283187;28;20049;-57
2022/12/25 08:01:23;;;;;;;327.50;196.65;;;;;;;1.44;100.00;98354.50;10284587;28;20069;-57
2022/12/25 08:06:28;;;;;;;310.10;186.43;;;;;;;1.69;100.00;98369.28;10284864;28;20065;-57
2022/12/25 08:11:27;;;;;;;274.30;167.07;;;;;;;1.91;100.00;98371.06;10282505;28;20080;-57
2022/12/25 08:16:26;;;;;;;285.83;175.90;;;;;;;2.15;100.00;98365.22;10283070;28;20069;-57
2022/12/25 08:21:26;;;;;;;308.42;193.02;;;;;;;2.35;100.00;98356.69;10283981;28;20022;-57
2022/12/25 08:26:25;;;;;;;287.23;176.05;;;;;;;2.61;100.00;98359.44;10284714;28;20072;-57
2022/12/25 08:31:28;;;;;;;346.98;221.20;;;;;;;2.73;100.00;98362.47;10291334;28;20040;-57
2022/12/25 08:36:28;;;;;;;330.98;214.80;;;;;;;2.91;100.00;98358.88;10292383;28;20076;-58
2022/12/25 08:41:27;;;;;;;402.40;263.00;;;;;;;3.05;100.00;98365.44;10273978;28;20808;-58
2022/12/25 08:46:26;;;;;;;324.58;208.75;;;;;;;3.28;100.00;98373.97;10251929;28;20037;-57
2022/12/25 08:51:25;;;;;;;360.17;234.68;;;;;;;3.41;100.00;98359.94;10268783;28;20064;-57
2022/12/25 08:56:25;;;;;;;362.02;237.38;;;;;;;3.70;100.00;98360.97;10290311;28;20057;-57
2022/12/25 09:01:23;;;;;;;356.75;233.93;;;;;;;3.81;100.00;98375.06;10291225;28;20094;-57
2022/12/25 09:06:22;;;;;;;531.53;348.90;;;;;;;4.06;100.00;98368.25;10292742;28;20708;-57
2022/12/25 09:11:22;;;;;;;600.13;405.80;;;;;;;4.20;100.00;98356.75;10291686;28;20079;-57
2022/12/25 09:16:22;;;;;;;358.88;245.23;;;;;;;4.46;100.00;98379.84;10290927;28;20502;-57
2022/12/25 09:21:21;;;;;;;346.33;236.30;;;;;;;4.71;100.00;98372.13;10284479;28;20066;-57
2022/12/25 09:26:20;;;;;;;248.45;163.18;;;;;;;4.80;99.37;98374.09;10288482;28;20038;-57
2022/12/25 09:31:21;;;;;;;242.23;153.80;;;;;;;4.96;98.97;98382.34;10287165;28;20033;-57
2022/12/25 09:36:22;;;;;;;122.65;84.72;;;;;;;5.21;98.47;98368.53;10288271;28;20068;-57
2022/12/25 09:41:32;;;;;;;138.32;96.35;;;;;;;5.38;96.72;98366.47;10266410;28;20129;-58
2022/12/25 09:46:39;;;;;;;152.07;103.78;;;;;;;5.57;95.40;98365.28;10263703;28;20057;-58
2022/12/25 09:51:42;;;;;;;140.27;98.25;;;;;;;5.74;95.06;98371.75;10264613;28;20069;-58
2022/12/25 09:56:41;;;;;;;123.13;84.05;;;;;;;5.95;93.88;98363.75;10280408;28;20060;-57
2022/12/25 10:02:02;;;;;;;134.65;98.03;;;;;;;6.20;93.48;98354.97;10275164;28;20036;-57
2022/12/25 10:07:19;;;;;;;144.70;102.50;;;;;;;6.39;92.65;98344.28;10261332;28;20069;-57
2022/12/25 10:12:41;;;;;;;173.23;120.53;;;;;;;6.58;91.59;98342.16;10261823;28;20593;-57
2022/12/25 10:17:53;;;;;;;237.07;169.50;;;;;;;6.76;91.62;98329.72;10272075;28;20506;-57
2022/12/25 10:22:56;;;;;;;217.73;158.93;;;;;;;6.90;89.83;98326.59;10279620;28;20754;-57
2022/12/25 10:28:03;;;;;;;238.50;172.13;;;;;;;7.21;89.29;98318.66;10245628;28;20074;-57
2022/12/25 10:33:02;;;;;;;239.60;178.73;;;;;;;7.32;87.20;98306.00;10274205;28;20733;-58
2022/12/25 10:38:09;;;;;;;601.97;439.38;;;;;;;7.71;87.11;98332.63;10277920;28;20124;-58
2022/12/25 10:43:16;;;;;;;224.13;170.45;;;;;;;7.91;84.96;98331.31;10281626;28;20073;-58
2022/12/25 10:48:25;;;;;;;197.38;152.13;;;;;;;8.28;84.84;98319.03;10279790;28;20555;-58
2022/12/25 10:53:26;;;;;;;179.25;141.52;;;;;;;8.66;83.14;98322.25;10283055;28;20069;-58
2022/12/25 10:58:26;;;;;;;178.77;139.95;;;;;;;9.11;82.91;98328.06;10279048;28;20120;-58
2022/12/25 11:03:31;;;;;;;168.88;132.50;;;;;;;9.53;81.82;98319.16;10275927;28;20062;-58
2022/12/25 11:08:33;;;;;;;144.35;112.45;;;;;;;9.96;79.78;98324.84;10281976;28;20061;-58
2022/12/25 11:13:38;;;;;;;142.68;116.82;;;;;;;10.28;75.11;98334.66;10281374;28;20072;-58
2022/12/25 11:18:46;;;;;;;143.07;113.45;;;;;;;10.79;75.05;98317.78;10282946;28;20125;-58
2022/12/25 11:23:48;;;;;;;103.20;84.15;;;;;;;11.18;72.90;98317.22;10281151;28;20072;-58
2022/12/25 11:28:50;;;;;;;73.30;58.10;;;;;;;11.51;70.81;98317.38;10283861;28;20072;-58
2022/12/25 11:34:01;;;;;;;50.03;40.65;;;;;;;11.81;72.40;98312.28;10277026;28;20061;-58
2022/12/25 11:39:19;;;;;;;57.88;44.47;;;;;;;11.98;65.04;98308.88;10283968;28;20065;-58
2022/12/25 11:44:39;;;;;;;11.23;7.30;;;;;;;12.13;58.33;98308.00;10280166;28;20069;-58
2022/12/25 11:49:43;;;;;;;;;;;;;;;12.28;57.81;98313.28;10284553;28;20491;-58
2022/12/25 11:55:02;;;;;;;12.85;8.00;;;;;;;12.34;56.53;98315.00;10283351;28;20406;-58
2022/12/25 12:00:08;;;;;;;12.33;8.33;;;;;;;12.23;54.52;98304.59;10283532;28;20538;-58
2022/12/25 12:05:15;;;;;;;7.80;5.18;;;;;;;12.00;53.92;98309.75;10286249;28;20053;-58
2022/12/25 12:10:18;;;;;;;8.30;4.93;;;;;;;11.93;54.03;98298.44;10291984;28;20085;-58
2022/12/25 12:15:38;;;;;;;5.82;3.80;;;;;;;11.79;52.64;98303.63;10290012;28;20080;-57
2022/12/25 12:20:37;;;;;;;8.55;4.30;;;;;;;11.74;53.34;98307.94;10290946;28;20057;-58
2022/12/25 12:25:41;;;;;;;4.95;3.00;;;;;;;11.66;52.78;98302.69;10289011;28;20081;-58
2022/12/25 12:30:40;;;;;;;3.75;2.22;;;;;;;11.67;51.55;98308.78;10291265;28;20443;-57
2022/12/25 12:35:39;;;;;;;16.50;8.27;;;;;;;11.78;50.14;98316.59;10265378;28;20499;-58
2022/12/25 12:40:41;;;;;;;;;;;;;;;11.89;48.11;98326.16;10251862;28;20539;-58
2022/12/25 12:45:40;;;;;;;11.32;5.70;;;;;;;12.00;47.84;98314.94;10273491;28;19953;-57
2022/12/25 12:50:40;;;;;;;7.40;4.47;;;;;;;12.17;46.64;98322.78;10277210;28;20614;-57
2022/12/25 12:55:39;;;;;;;8.02;5.18;;;;;;;12.32;47.09;98332.34;10285597;28;20053;-58
2022/12/25 13:00:49;;;;;;;6.30;4.45;;;;;;;12.38;46.71;98332.38;10280631;28;20133;-58
2022/12/25 13:06:30;;;;;;;8.38;5.05;;;;;;;12.47;47.69;98335.84;10274987;28;20068;-57
2022/12/25 13:11:32;;;;;;;13.82;6.70;;;;;;;12.41;48.25;98338.44;10278663;28;20499;-57
2022/12/25 13:16:44;;;;;;;15.60;6.72;;;;;;;12.33;48.19;98334.97;10289538;28;20070;-58
2022/12/25 13:22:01;;;;;;;11.38;6.25;;;;;;;12.29;48.45;98334.09;10280115;28;20061;-58
2022/12/25 13:27:14;;;;;;;12.20;5.82;;;;;;;12.11;48.61;98349.66;10285758;28;20076;-58
2022/12/25 13:32:20;;;;;;;7.43;4.40;;;;;;;12.00;49.89;98343.56;10293706;28;20501;-58
2022/12/25 13:37:23;;;;;;;13.30;7.65;;;;;;;12.08;50.64;98347.03;10286284;28;20069;-58
2022/12/25 13:42:26;;;;;;;27.25;17.02;;;;;;;12.05;50.54;98341.81;10270115;28;20093;-58
2022/12/25 13:47:33;;;;;;;13.77;7.93;;;;;;;12.01;50.80;98346.13;10285096;28;20112;-58
2022/12/25 13:52:34;;;;;;;22.63;15.98;;;;;;;11.94;51.12;98343.53;10263699;28;20065;-58
2022/12/25 13:58:01;;;;;;;17.83;11.15;;;;;;;11.81;51.23;98353.03;10280152;28;20107;-59
2022/12/25 14:03:00;;;;;;;18.63;12.65;;;;;;;11.69;51.83;98359.06;10284100;28;20103;-58
2022/12/25 14:08:02;;;;;;;11.35;7.07;;;;;;;11.57;52.74;98359.88;10287559;28;20550;-57
2022/12/25 14:13:04;;;;;;;12.70;7.45;;;;;;;11.37;53.06;98362.34;10283804;28;20088;-57
2022/12/25 14:18:03;;;;;;;18.58;9.07;;;;;;;11.18;53.44;98363.13;10286871;28;20061;-58
2022/12/25 14:23:04;;;;;;;14.05;9.05;;;;;;;10.98;54.36;98362.97;10263893;28;20889;-57
2022/12/25 14:28:08;;;;;;;33.10;25.83;;;;;;;10.93;54.31;98370.72;10253567;28;20840;-58
2022/12/25 14:33:14;;;;;;;18.90;11.93;;;;;;;10.83;55.37;98376.69;10276486;28;20069;-58
2022/12/25 14:38:22;;;;;;;23.95;17.50;;;;;;;10.58;54.90;98384.25;10280873;28;20121;-57
2022/12/25 14:43:25;;;;;;;28.42;19.70;;;;;;;10.38;55.91;98391.00;10282362;28;20069;-57
2022/12/25 14:48:26;;;;;;;58.15;39.30;;;;;;;10.14;57.81;98387.28;10284551;28;20059;-57
2022/12/25 14:53:44;;;;;;;54.25;37.67;;;;;;;9.67;58.13;98395.34;10281412;28;20517;-57
2022/12/25 14:58:49;;;;;;;42.60;27.42;;;;;;;9.45;59.36;98401.13;10279231;28;20129;-57
2022/12/25 15:03:48;;;;;;;54.60;38.50;;;;;;;9.24;60.52;98399.06;10282103;28;20479;-57
2022/12/25 15:09:01;;;;;;;66.30;42.63;;;;;;;9.00;61.46;98410.78;10283187;28;20100;-57
2022/12/25 15:14:00;;;;;;;70.82;47.20;;;;;;;8.77;62.29;98414.72;10281270;28;20507;-57
2022/12/25 15:19:00;;;;;;;90.97;63.33;;;;;;;8.53;62.72;98418.63;10279720;28;20029;-57
2022/12/25 15:23:59;;;;;;;80.90;57.72;;;;;;;8.28;64.54;98436.25;10280741;28;20157;-57
2022/12/25 15:28:58;;;;;;;79.82;56.08;;;;;;;7.99;65.26;98427.97;10278895;28;20070;-57
2022/12/25 15:34:00;;;;;;;86.82;57.47;;;;;;;7.85;66.25;98443.19;10276239;28;20103;-57
2022/12/25 15:38:59;;;;;;;411.10;230.20;;;;;;;7.57;67.26;98454.63;10278860;28;20771;-57
2022/12/25 15:43:58;;;;;;;101.20;64.43;;;;;;;7.39;68.34;98462.78;10281976;28;20026;-57
2022/12/25 15:48:57;;;;;;;81.85;53.75;;;;;;;7.09;69.83;98460.34;10281273;28;20026;-57
2022/12/25 15:53:57;;;;;;;83.82;52.65;;;;;;;6.85;70.79;98459.78;10280430;28;20040;-58
2022/12/25 15:58:56;;;;;;;77.32;50.63;;;;;;;6.62;72.29;98462.63;10279472;28;20701;-57
2022/12/25 16:03:55;;;;;;;60.97;41.03;;;;;;;6.47;73.26;98476.00;10254692;28;20117;-57
2022/12/25 16:08:54;;;;;;;123.72;70.40;;;;;;;6.32;73.79;98475.56;10240686;28;20547;-58
2022/12/25 16:13:53;;;;;;;173.93;99.47;;;;;;;6.15;74.04;98478.56;10271327;28;20517;-57
2022/12/25 16:18:52;;;;;;;88.88;53.88;;;;;;;6.08;74.75;98486.06;10280815;28;20039;-57
2022/12/25 16:23:51;;;;;;;64.57;40.15;;;;;;;5.96;74.66;98482.31;10283687;28;20117;-57
2022/12/25 16:28:50;;;;;;;44.85;29.23;;;;;;;5.85;75.10;98477.69;10279517;28;20033;-57
2022/12/25 16:33:49;;;;;;;29.70;19.10;;;;;;;5.81;75.63;98484.44;10278419;28;20117;-57
2022/12/25 16:38:48;;;;;;;747.83;378.60;;;;;;;5.76;77.25;98498.88;10262905;28;20499;-57
2022/12/25 16:43:47;;;;;;;100.97;62.38;;;;;;;5.66;76.77;98502.00;10271668;28;20138;-57
2022/12/25 16:48:46;;;;;;;;;;;;;;;5.51;77.64;98518.75;10276507;28;20109;-58
2022/12/25 16:53:46;;;;;;;203.43;114.85;;;;;;;5.32;78.20;98542.13;10275781;28;19910;-57
2022/12/25 16:58:47;;;;;;;123.15;71.93;;;;;;;5.18;78.90;98543.38;10262459;28;20472;-57
2022/12/25 17:03:46;;;;;;;113.28;73.40;;;;;;;4.90;80.62;98543.31;10268346;28;20065;-57
2022/12/25 17:08:45;;;;;;;119.43;77.13;;;;;;;4.88;81.03;98549.22;10255247;28;20080;-57
2022/12/25 17:13:46;;;;;;;105.35;66.22;;;;;;;4.84;80.78;98548.22;10278122;28;20132;-57
2022/12/25 17:18:45;;;;;;;78.40;50.20;;;;;;;4.72;81.12;98548.69;10286025;28;20154;-57
2022/12/25 17:23:47;;;;;;;90.82;56.45;;;;;;;4.61;81.25;98555.16;10284303;28;20057;-57
2022/12/25 17:28:46;;;;;;;93.82;61.72;;;;;;;4.56;82.10;98566.97;10282696;28;20460;-58
2022/12/25 17:33:45;;;;;;;185.30;99.72;;;;;;;4.50;82.37;98570.19;10250852;28;20439;-57
2022/12/25 17:38:45;;;;;;;144.52;90.28;;;;;;;4.43;82.15;98569.91;10245236;28;20084;-57
2022/12/25 17:43:45;;;;;;;152.18;90.40;;;;;;;4.34;82.69;98584.97;10280481;28;20085;-57
2022/12/25 17:48:45;;;;;;;197.95;119.72;;;;;;;4.23;83.13;98585.47;10297782;28;20076;-57
2022/12/25 17:53:46;;;;;;;180.90;112.65;;;;;;;4.12;83.74;98579.03;10287438;28;20073;-57
2022/12/25 17:58:54;;;;;;;214.15;124.63;;;;;;;4.04;84.58;98593.31;10284844;28;20101;-57
2022/12/25 18:03:53;;;;;;;295.48;198.05;;;;;;;3.90;84.94;98595.34;10280885;28;20076;-57
2022/12/25 18:08:57;;;;;;;241.88;153.57;;;;;;;3.81;85.83;98574.44;10282062;28;20567;-57
2022/12/25 18:13:57;;;;;;;278.52;188.50;;;;;;;3.80;85.86;98606.06;10277295;28;20137;-57
2022/12/25 18:18:58;;;;;;;289.85;184.85;;;;;;;3.60;87.27;98620.66;10282651;28;20113;-57
2022/12/25 18:23:57;;;;;;;147.23;95.30;;;;;;;3.46;87.32;98617.53;10283658;28;20549;-58
2022/12/25 18:28:56;;;;;;;146.30;96.10;;;;;;;3.41;87.49;98614.78;10282565;28;20097;-57
2022/12/25 18:33:56;;;;;;;;;;;;;;;3.38;87.02;98612.09;10281950;28;20556;-57
2022/12/25 18:38:56;;;;;;;197.70;117.13;;;;;;;3.28;87.15;98607.38;10269200;28;20017;-57
2022/12/25 18:43:58;;;;;;;192.07;115.75;;;;;;;3.20;87.77;98608.78;10271167;28;20069;-57
2022/12/25 18:48:57;;;;;;;138.95;83.82;;;;;;;2.99;87.90;98578.84;10244259;28;20073;-57
2022/12/25 18:53:56;;;;;;;153.32;95.88;;;;;;;3.09;87.65;98597.19;10265919;28;20060;-57
2022/12/25 18:58:58;;;;;;;167.40;105.75;;;;;;;2.99;87.91;98595.94;10273723;28;20055;-57
2022/12/25 19:03:57;;;;;;;180.52;118.90;;;;;;;2.83;90.03;98607.22;10281877;28;20069;-57
2022/12/25 19:08:57;;;;;;;180.75;113.10;;;;;;;2.78;89.87;98606.13;10281855;28;20121;-57
2022/12/25 19:13:56;;;;;;;179.10;113.13;;;;;;;2.77;89.72;98614.66;10261390;28;20176;-57
2022/12/25 19:18:56;;;;;;;167.10;106.47;;;;;;;2.74;90.29;98620.50;10272218;28;20036;-57
2022/12/25 19:23:55;;;;;;;166.40;107.15;;;;;;;2.77;89.72;98622.34;10261233;28;20121;-57
2022/12/25 19:28:54;;;;;;;166.15;105.80;;;;;;;2.72;89.74;98611.88;10264988;28;20065;-57
2022/12/25 19:33:53;;;;;;;169.18;107.22;;;;;;;2.65;89.52;98614.97;10275068;28;20037;-57
2022/12/25 19:38:52;;;;;;;176.75;109.13;;;;;;;2.54;89.69;98606.81;10257935;28;21965;-57
2022/12/25 19:43:51;;;;;;;208.82;126.35;;;;;;;2.44;89.76;98625.16;10275640;28;20069;-57
2022/12/25 19:48:50;;;;;;;251.38;148.80;;;;;;;2.29;90.52;98622.78;10262224;28;20681;-57
2022/12/25 19:53:50;;;;;;;;;;;;;;;2.28;90.40;98625.28;10269555;28;20073;-57
2022/12/25 19:58:49;;;;;;;288.60;167.80;;;;;;;2.22;90.70;98635.22;10254404;28;19960;-57
2022/12/25 20:03:48;;;;;;;300.48;177.82;;;;;;;2.14;90.62;98624.66;10259670;28;20493;-57
2022/12/25 20:08:51;;;;;;;359.70;222.02;;;;;;;2.09;90.56;98636.34;10254737;28;20086;-57
2022/12/25 20:13:50;;;;;;;368.50;230.05;;;;;;;1.99;91.08;98642.72;10244605;28;20141;-57
2022/12/25 20:18:49;;;;;;;;;;;;;;;1.91;91.32;98632.13;10263045;28;20088;-57
2022/12/25 20:23:51;;;;;;;374.15;222.52;;;;;;;1.87;91.66;98639.56;10267592;28;19913;-57
2022/12/25 20:28:50;;;;;;;336.73;206.75;;;;;;;1.84;91.47;98621.53;10270749;28;20076;-57
2022/12/25 20:33:49;;;;;;;372.65;225.27;;;;;;;1.82;91.70;98638.50;10271134;28;20072;-57
2022/12/25 20:38:48;;;;;;;393.45;240.80;;;;;;;1.75;91.77;98627.94;10298725;28;20038;-57
2022/12/25 20:43:49;;;;;;;;;;;;;;;1.69;92.00;98620.00;10260430;28;20498;-57
2022/12/25 20:48:48;;;;;;;349.48;215.38;;;;;;;1.65;91.90;98630.88;10265206;28;20040;-57
2022/12/25 20:53:47;;;;;;;379.95;239.68;;;;;;;1.54;92.31;98634.59;10272373;28;20157;-57
2022/12/25 20:58:46;;;;;;;347.52;216.05;;;;;;;1.46;92.81;98641.03;10268511;28;20180;-57
2022/12/25 21:03:45;;;;;;;317.00;191.43;;;;;;;1.43;92.69;98641.72;10274935;28;20034;-57
2022/12/25 21:08:44;;;;;;;289.10;181.50;;;;;;;1.40;92.78;98645.84;10283076;28;20151;-57
2022/12/25 21:13:44;;;;;;;296.75;176.77;;;;;;;1.38;92.75;98653.41;10275698;28;20033;-57
2022/12/25 21:18:43;;;;;;;293.23;178.90;;;;;;;1.33;92.51;98645.53;10290712;28;20077;-57
2022/12/25 21:23:43;;;;;;;301.23;186.73;;;;;;;1.31;92.83;98646.25;10283203;28;20117;-57
2022/12/25 21:28:41;;;;;;;;;;;;;;;1.28;92.92;98649.53;10289646;28;20084;-57
2022/12/25 21:33:56;;;;;;;267.58;162.30;;;;;;;1.23;92.66;98638.22;10280123;28;19918;-57
2022/12/25 21:39:00;;;;;;;281.55;168.77;;;;;;;1.14;92.78;98642.00;10275907;28;20066;-57
2022/12/25 21:44:00;;;;;;;269.58;173.52;;;;;;;1.05;93.05;98640.72;10283879;28;20069;-57
2022/12/25 21:48:59;;;;;;;;;;;;;;;1.00;93.08;98636.19;10286755;28;20137;-57
2022/12/25 21:53:59;;;;;;;196.95;117.65;;;;;;;0.96;93.38;98631.69;10273967;28;19957;-57
2022/12/25 21:58:59;;;;;;;288.58;176.95;;;;;;;0.88;93.52;98621.97;10285135;28;20081;-57
2022/12/25 22:04:04;;;;;;;314.05;190.85;;;;;;;0.77;93.57;98609.44;10283098;28;20476;-57
2022/12/25 22:09:07;;;;;;;328.50;198.27;;;;;;;0.83;93.71;98618.31;10285987;28;20076;-57
2022/12/25 22:19:42;;;;;;;339.00;210.73;;;;;;;0.68;93.70;98599.63;10259736;28;20061;-57
2022/12/25 22:24:42;;;;;;;345.52;214.43;;;;;;;0.69;93.62;98611.63;10283420;28;20088;-57
2022/12/25 22:29:42;;;;;;;358.17;220.80;;;;;;;0.64;93.70;98624.16;10284184;28;20066;-57
2022/12/25 22:34:41;;;;;;;323.02;195.00;;;;;;;0.62;93.82;98619.75;10284970;28;20069;-57
2022/12/25 22:39:40;;;;;;;467.02;289.42;;;;;;;0.59;93.84;98620.50;10286726;28;20074;-58
2022/12/25 22:44:39;;;;;;;363.20;216.65;;;;;;;0.54;94.23;98621.91;10283753;28;20072;-57
2022/12/25 22:49:38;;;;;;;314.25;186.07;;;;;;;0.49;93.90;98633.56;10283713;28;20034;-57
2022/12/25 22:54:37;;;;;;;323.85;201.85;;;;;;;0.45;93.91;98635.09;10270973;28;20053;-57
2022/12/25 22:59:36;;;;;;;328.05;196.05;;;;;;;0.41;94.27;98630.59;10285223;28;20100;-57
2022/12/25 23:04:35;;;;;;;325.75;195.00;;;;;;;0.34;94.10;98632.75;10276533;28;20038;-57
2022/12/25 23:09:34;;;;;;;349.40;193.45;;;;;;;0.27;94.29;98636.66;10286200;28;20507;-57
2022/12/25 23:14:39;;;;;;;344.50;199.65;;;;;;;0.26;94.46;98629.78;10286528;28;20113;-57
2022/12/25 23:30:15;;;;;;;293.25;167.02;;;;;;;0.13;94.32;98632.50;10283422;28;20066;-57
2022/12/25 23:35:14;;;;;;;302.63;175.32;;;;;;;0.11;94.46;98644.28;10286443;28;20061;-57
2022/12/25 23:40:13;;;;;;;252.52;143.25;;;;;;;0.09;94.82;98635.66;10253787;28;20032;-57
2022/12/25 23:45:12;;;;;;;253.52;143.75;;;;;;;0.09;94.40;98646.75;10287817;28;20494;-57
2022/12/25 23:50:11;;;;;;;238.82;138.98;;;;;;;0.08;94.75;98626.22;10285772;28;20057;-57
2022/12/25 23:55:10;;;;;;;223.63;126.93;;;;;;;-0.03;95.07;98605.25;10287502;28;20044;-57
